Tiempo atmosférico en la estación meteorológica de Garganta De La Olla, Cáceres (690 m.)



Fecha
DESCASC
Temp. máxima en grados centígrados (hora)
DESCASC
Temp. mínima en grados centígrados (hora)
DESCASC
Temp. media en grados centígrados
DESCASC
Racha de viento máxima en m/sg (hora)
DESCASC
Velocidad máxima media en intervalos de 10 minutos(hora)
DESCASC
Precipitaciones diarias en mm
DESCASC
Precipitaciones de 00:00 a 06:00 en mm
DESCASC
Precipitaciones de 06:00 a 12:00 en mm
DESCASC
Precipitaciones de 12:00 a 18:00 en mm
DESCASC
Precipitaciones de 18:00 a 24:00 en mm
DESCASC

Gráficas

Temp. máximas Temp. mínimas Temp. medias Precipitaciones Rachas de viento máximas Velocidades máximas media en intervalos de 10 minutos

Datos horarios

Fecha y hora oficial Temperatura (ºC) Velocidad del viento (km/h) Dirección del viento Racha (km/h) Dirección de racha Precipitación (mm) Presión (hPa) Tendencia (hPa) Humedad (%)
2020-07-07 23:00:00 28.9 13 Noroeste 26 Noroeste 0 -- -- 26
2020-07-07 22:00:00 28.4 15 Noroeste 26 Noroeste 0 -- -- 27
2020-07-07 21:00:00 27.8 17 Noroeste 26 Noroeste 0 -- -- 34
2020-07-07 20:00:00 28.8 17 Noroeste 23 Noroeste 0 -- -- 38
2020-07-07 19:00:00 32.3 13 Noroeste 20 Noroeste 0 -- -- 35
2020-07-07 18:00:00 34.1 10 Noroeste 21 Noroeste 0 -- -- 31
2020-07-07 17:00:00 35.4 5 Noroeste 15 Sur 0 -- -- 35
2020-07-07 16:00:00 34.9 4 Norte 17 Sur 0 -- -- 26
2020-07-07 15:00:00 34.6 4 Sudoeste 15 Sur 0 -- -- 25
2020-07-07 14:00:00 33.5 6 Sur 14 Sur 0 -- -- 33
2020-07-07 13:00:00 32 5 Sur 12 Sudeste 0 -- -- 40
2020-07-07 12:00:00 30.7 6 Sudeste 14 Sudeste 0 -- -- 43
2020-07-07 11:00:00 30 8 Sur 14 Sur 0 -- -- 42
2020-07-07 10:00:00 29.2 4 Este 10 Sudeste 0 -- -- 43
2020-07-07 09:00:00 27 4 Noroeste -- -- -- -- -- 53
2020-07-07 08:00:00 24 8 Sudoeste 16 Noroeste 0 -- -- 52
2020-07-07 07:00:00 23.5 11 Noroeste 17 Noroeste 0 -- -- 51
2020-07-07 06:00:00 23.9 8 Noroeste 14 Noroeste 0 -- -- 51
2020-07-07 05:00:00 25.8 5 Noroeste 19 Noroeste 0 -- -- 46
2020-07-07 04:00:00 25.2 4 Sudoeste 18 Noroeste 0 -- -- 47
2020-07-07 03:00:00 25.8 9 Noroeste 21 Oeste 0 -- -- 41
2020-07-07 02:00:00 26.5 3 Sudoeste 18 Noroeste 0 -- -- 39
2020-07-07 01:00:00 27.3 13 Noroeste 20 Noroeste 0 -- -- 38
2020-07-07 00:00:00 28.2 12 Noroeste 24 Noroeste 0 -- -- 36
2020-07-06 23:00:00 27 18 Noroeste 25 Noroeste 0 -- -- 38
2020-07-06 22:00:00 27 19 Noroeste 26 Noroeste 0 -- -- 41
2020-07-06 21:00:00 27.8 19 Noroeste 26 Noroeste 0 -- -- 44
2020-07-06 20:00:00 31.3 14 Noroeste 21 Noroeste 0 -- -- 40
2020-07-06 19:00:00 34 12 Noroeste 18 Oeste 0 -- -- 37
2020-07-06 18:00:00 35.8 6 Oeste 16 Noroeste 0 -- -- 30
2020-07-06 17:00:00 35.8 8 Noroeste 20 Noroeste 0 -- -- 26
2020-07-06 16:00:00 35.7 3 Sudoeste 18 Sur 0 -- -- 27
2020-07-06 15:00:00 35.3 8 Sudeste 15 Sudeste 0 -- -- 28
2020-07-06 14:00:00 34 7 Sur 15 Sudeste 0 -- -- 31
2020-07-06 13:00:00 33.2 7 Sur 15 Sudeste 0 -- -- 32
2020-07-06 12:00:00 31.8 4 Sudeste 12 Sudeste 0 -- -- 34
2020-07-06 11:00:00 30.1 4 Sudeste 8 Sudeste 0 -- -- 34
2020-07-06 10:00:00 28.8 4 Este 6 Este 0 -- -- 42
2020-07-06 09:00:00 26.2 3 Norte 13 Noroeste 0 -- -- 50
2020-07-06 08:00:00 23.2 7 Noroeste 12 Noroeste 0 -- -- 45
2020-07-06 07:00:00 24.1 3 Oeste 15 Noroeste 0 -- -- 36
2020-07-06 06:00:00 24.7 10 Noroeste 16 Noroeste 0 -- -- 33
2020-07-06 05:00:00 24.9 9 Noroeste 23 Noroeste 0 -- -- 32
2020-07-06 04:00:00 25.4 12 Noroeste 18 Noroeste 0 -- -- 31
2020-07-06 03:00:00 25.8 0 Calma 21 Noroeste 0 -- -- 31
2020-07-06 02:00:00 27.6 13 Noroeste 28 Norte 0 -- -- 28
2020-07-06 01:00:00 29 18 Norte 31 Norte 0 -- -- 26
2020-07-06 00:00:00 26.4 19 Noroeste 28 Noroeste 0 -- -- 30
2020-07-05 23:00:00 26.6 20 Noroeste 31 Noroeste 0 -- -- 30
2020-07-05 22:00:00 26.8 23 Noroeste 32 Noroeste 0 -- -- 31
2020-07-05 21:00:00 27 19 Noroeste 25 Noroeste 0 -- -- 35
2020-07-05 20:00:00 29.3 15 Noroeste 21 Noroeste 0 -- -- 34
2020-07-05 19:00:00 32.8 11 Noroeste 17 Noroeste 0 -- -- 35
2020-07-05 18:00:00 35.1 6 Noroeste 14 Sudoeste 0 -- -- 24
2020-07-05 17:00:00 35.1 9 Sur 18 Sudoeste 0 -- -- 20
2020-07-05 16:00:00 35.1 5 Sur 16 Sudoeste 0 -- -- 22
2020-07-05 15:00:00 34.1 8 Sudeste 15 Sudeste 0 -- -- 25
2020-07-05 14:00:00 32.9 6 Sur 12 Sur 0 -- -- 28
2020-07-05 13:00:00 31.1 5 Sudeste 12 Sudeste 0 -- -- 32
2020-07-05 12:00:00 29.3 6 Sudeste 10 Este 0 -- -- 33
2020-07-05 11:00:00 27.6 4 Sudeste 10 Sur 0 -- -- 33
2020-07-05 10:00:00 26.4 4 Sudeste 8 Este 0 -- -- 37
2020-07-05 09:00:00 25.2 0 Calma 5 Noroeste 0 -- -- 42
2020-07-05 08:00:00 21 2 Norte 14 Noroeste 0 -- -- 42
2020-07-05 07:00:00 20.1 12 Noroeste 19 Noroeste 0 -- -- 39
2020-07-05 06:00:00 21.1 3 Noroeste 12 Noroeste 0 -- -- 37
2020-07-05 05:00:00 22.1 13 Noroeste 23 Oeste 0 -- -- 36
2020-07-05 04:00:00 23.3 4 Sudeste 18 Noroeste 0 -- -- 34
2020-07-05 03:00:00 24.6 13 Noroeste 20 Noroeste 0 -- -- 32
2020-07-05 02:00:00 25.2 12 Noroeste 22 Noroeste 0 -- -- 31
2020-07-05 01:00:00 25.2 10 Noroeste 15 Noroeste 0 -- -- 31
2020-07-05 00:00:00 25.6 10 Noroeste 19 Noroeste 0 -- -- 29
2020-07-04 23:00:00 25.9 10 Noroeste 25 Noroeste 0 -- -- 28
2020-07-04 22:00:00 26.2 15 Noroeste 30 Noroeste 0 -- -- 31
2020-07-04 21:00:00 25.3 20 Noroeste 30 Noroeste 0 -- -- 38
2020-07-04 20:00:00 28.4 17 Noroeste 24 Noroeste 0 -- -- 38
2020-07-04 19:00:00 32.1 9 Noroeste 18 Noroeste 0 -- -- 35
2020-07-04 18:00:00 32.9 4 Noroeste 17 Sur 0 -- -- 32
2020-07-04 17:00:00 32.7 8 Sur 18 Sudeste 0 -- -- 27
2020-07-04 16:00:00 32.2 8 Sudoeste 16 Sudoeste 0 -- -- 28
2020-07-04 15:00:00 31.4 7 Sudeste 17 Sudeste 0 -- -- 29
2020-07-04 14:00:00 30.5 5 Sur 14 Sur 0 -- -- 33
2020-07-04 13:00:00 29.1 5 Sur 15 Sudeste 0 -- -- 34
2020-07-04 12:00:00 27.8 7 Sur 15 Sudeste 0 -- -- 33
2020-07-04 11:00:00 26.6 4 Nordeste 8 Sudeste 0 -- -- 34
2020-07-04 10:00:00 24.7 5 Este 8 Este 0 -- -- 42
2020-07-04 09:00:00 23.1 3 Nordeste 8 Sur 0 -- -- 45
2020-07-04 08:00:00 19.2 6 Oeste 15 Noroeste 0 -- -- 48
2020-07-04 07:00:00 19.5 4 Sudoeste 16 Noroeste 0 -- -- 42
2020-07-04 06:00:00 20 13 Noroeste 21 Noroeste 0 -- -- 43
2020-07-04 05:00:00 21.5 10 Noroeste 20 Noroeste 0 -- -- 38
2020-07-04 04:00:00 20.6 10 Noroeste 16 Noroeste 0 -- -- 39
2020-07-04 03:00:00 22.4 11 Noroeste 19 Oeste 0 -- -- 33
2020-07-04 02:00:00 22.8 12 Noroeste 22 Noroeste 0 -- -- 32
2020-07-04 01:00:00 22.7 13 Noroeste 24 Noroeste 0 -- -- 33
2020-07-04 00:00:00 24 8 Noroeste 20 Norte 0 -- -- 30
2020-07-03 23:00:00 25 14 Norte 31 Norte 0 -- -- 28
2020-07-03 22:00:00 24.6 20 Noroeste 33 Noroeste 0 -- -- 31
2020-07-03 21:00:00 23.6 18 Noroeste 26 Noroeste 0 -- -- 38
2020-07-03 20:00:00 26.9 13 Noroeste 19 Norte 0 -- -- 41
2020-07-03 19:00:00 30.2 8 Noroeste 15 Noroeste 0 -- -- 36
2020-07-03 18:00:00 30.3 6 Noroeste 15 Noroeste 0 -- -- 36
2020-07-03 17:00:00 30 4 Sudeste 18 Sur 0 -- -- 33
2020-07-03 16:00:00 29.6 10 Sur 21 Sur 0 -- -- 35
2020-07-03 15:00:00 28.3 8 Sur 17 Sudeste 0 -- -- 38
2020-07-03 14:00:00 27.2 8 Sur 17 Sur 0 -- -- 38
2020-07-03 13:00:00 26.2 6 Sur 17 Sudeste 0 -- -- 38
2020-07-03 12:00:00 25.2 9 Sudeste 15 Sudeste 0 -- -- 40
2020-07-03 11:00:00 23.7 7 Sudeste 14 Este 0 -- -- 41
2020-07-03 10:00:00 22 2 Nordeste 8 Este 0 -- -- 42
2020-07-03 09:00:00 20.1 2 Este 5 Nordeste 0 -- -- 52
2020-07-03 08:00:00 16.7 4 Sudoeste 7 Oeste 0 -- -- 56
2020-07-03 07:00:00 16.8 7 Noroeste 17 Noroeste 0 -- -- 52
2020-07-03 06:00:00 16.9 8 Noroeste 21 Noroeste 0 -- -- 52
2020-07-03 05:00:00 17.5 4 Oeste 14 Noroeste 0 -- -- 49
2020-07-03 04:00:00 18.6 10 Noroeste 17 Noroeste 0 -- -- 44
2020-07-03 03:00:00 20.4 10 Noroeste 25 Noroeste 0 -- -- 38
2020-07-03 02:00:00 20.4 10 Noroeste 22 Noroeste 0 -- -- 40
2020-07-03 01:00:00 21.8 15 Norte 34 Norte 0 -- -- 37
2020-07-03 00:00:00 21.3 17 Noroeste 29 Noroeste 0 -- -- 40
2020-07-02 23:00:00 21.4 14 Norte 35 Noroeste 0 -- -- 41
2020-07-02 22:00:00 20.9 19 Noroeste 27 Noroeste 0 -- -- 40
2020-07-02 21:00:00 24 12 Noroeste 27 Oeste 0 -- -- 38
2020-07-02 20:00:00 26.7 10 Noroeste 21 Noroeste 0 -- -- 38
2020-07-02 19:00:00 28.1 9 Noroeste 24 Oeste 0 -- -- 36
2020-07-02 18:00:00 28.3 8 Noroeste 29 Oeste 0 -- -- 39
2020-07-02 17:00:00 28.4 9 Oeste 27 Noroeste 0 -- -- 39
2020-07-02 16:00:00 27.9 8 Noroeste 27 Noroeste 0 -- -- 40
2020-07-02 15:00:00 27.7 12 Noroeste 26 Noroeste 0 -- -- 42
2020-07-02 14:00:00 27.4 11 Noroeste 26 Noroeste 0 -- -- 41
2020-07-02 13:00:00 27.2 10 Noroeste 28 Norte 0 -- -- 39
2020-07-02 12:00:00 27.1 6 Nordeste 17 Sudeste 0 -- -- 37
2020-07-02 11:00:00 24.8 8 Sur 17 Sur 0 -- -- 55
2020-07-02 10:00:00 24 7 Sur 13 Sur 0 -- -- 51
2020-07-02 09:00:00 23.8 5 Sur 15 Noroeste 0 -- -- 47
2020-07-02 08:00:00 19.9 5 Norte 23 Noroeste 0 -- -- 51
2020-07-02 07:00:00 20.9 15 Noroeste 25 Noroeste 0 -- -- 44
2020-07-02 06:00:00 21.1 14 Noroeste 24 Noroeste 0 -- -- 44
2020-07-02 05:00:00 21.5 14 Noroeste 28 Noroeste 0 -- -- 43
2020-07-02 04:00:00 22.4 18 Noroeste 27 Noroeste 0 -- -- 43
2020-07-02 03:00:00 22.9 16 Noroeste 28 Noroeste 0 -- -- 44
2020-07-02 02:00:00 23.5 19 Noroeste 31 Noroeste 0 -- -- 46
2020-07-02 01:00:00 23.8 15 Noroeste 30 Noroeste 0 -- -- 47
2020-07-02 00:00:00 24.1 18 Noroeste 33 Noroeste 0 -- -- 47
2020-07-01 23:00:00 24.4 22 Noroeste 31 Noroeste 0 -- -- 46
2020-07-01 22:00:00 24 9 Noroeste 16 Noroeste 0 -- -- 48
2020-07-01 21:00:00 25.7 9 Noroeste 16 Noroeste 0 -- -- 43
2020-07-01 20:00:00 29.7 8 Noroeste 19 Oeste 0 -- -- 39
2020-07-01 19:00:00 31.1 8 Oeste 22 Noroeste 0 -- -- 37
2020-07-01 18:00:00 31.2 8 Noroeste 23 Noroeste 0 -- -- 36
2020-07-01 17:00:00 31.5 10 Noroeste 24 Noroeste 0 -- -- 36
2020-07-01 16:00:00 31.1 9 Noroeste 23 Noroeste 0 -- -- 38
2020-07-01 15:00:00 30.9 8 Noroeste 18 Noroeste 0 -- -- 37
2020-07-01 14:00:00 29.7 7 Este 17 Sudeste 0 -- -- 46
2020-07-01 13:00:00 28 6 Este 14 Sudeste 0 -- -- 50
2020-07-01 12:00:00 27.4 7 Sudeste 15 Sudeste 0 -- -- 48
2020-07-01 11:00:00 25.8 8 Sudeste 14 Sudeste 0 -- -- 51
2020-07-01 10:00:00 24.8 5 Sudeste 8 Sudeste 0 -- -- 51
2020-07-01 09:00:00 23.5 3 Nordeste 6 Este 0 -- -- 49
2020-07-01 08:00:00 20.3 2 Norte 12 Noroeste 0 -- -- 50
2020-07-01 07:00:00 19.8 6 Noroeste 14 Noroeste 0 -- -- 44
2020-07-01 06:00:00 20.3 8 Noroeste 13 Noroeste 0 -- -- 41
2020-07-01 05:00:00 23.6 3 Sudoeste 17 Oeste 0 -- -- 34
2020-07-01 04:00:00 22.3 9 Noroeste 26 Noroeste 0 -- -- 38
2020-07-01 03:00:00 23.4 15 Noroeste 30 Noroeste 0 -- -- 47
2020-07-01 02:00:00 22.9 21 Noroeste 32 Noroeste 0 -- -- 48
2020-07-01 01:00:00 23.7 15 Norte 26 Noroeste 0 -- -- 46
2020-07-01 00:00:00 25 15 Noroeste 35 Noroeste 0 -- -- 43
2020-06-30 23:00:00 24.9 18 Noroeste 27 Noroeste 0 -- -- 39
2020-06-30 22:00:00 25.5 14 Noroeste 24 Noroeste 0 -- -- 43
2020-06-30 21:00:00 27.1 9 Noroeste 21 Oeste 0 -- -- 46
2020-06-30 20:00:00 29.8 11 Noroeste 21 Noroeste 0 -- -- 42
2020-06-30 19:00:00 32.1 8 Noroeste 20 Oeste 0 -- -- 42
2020-06-30 18:00:00 32.7 6 Noroeste 19 Noroeste 0 -- -- 36
2020-06-30 17:00:00 34 7 Oeste 15 Oeste 0 -- -- 37
2020-06-30 16:00:00 32.7 3 Sur 18 Sudoeste 0 -- -- 31
2020-06-30 15:00:00 33.8 9 Sur 19 Sudeste 0 -- -- 30
2020-06-30 14:00:00 32.9 8 Sudeste 15 Sudeste 0 -- -- 32
2020-06-30 13:00:00 32.2 8 Sudeste 14 Sur 0 -- -- 33
2020-06-30 12:00:00 31.6 6 Sur 12 Sur 0 -- -- 36
2020-06-30 11:00:00 30 4 Sudeste 11 Sur 0 -- -- 40
2020-06-30 10:00:00 28.1 3 Este 6 Este 0 -- -- 48
2020-06-30 09:00:00 24.7 2 Norte 14 Noroeste 0 -- -- 57
2020-06-30 08:00:00 21.9 0 Calma 12 Sudoeste 0 -- -- 53
2020-06-30 07:00:00 23.1 2 Sur 10 Noroeste 0 -- -- 47
2020-06-30 06:00:00 23.9 8 Noroeste 15 Noroeste 0 -- -- 44
2020-06-30 05:00:00 24.4 8 Noroeste 14 Noroeste 0 -- -- 43
2020-06-30 04:00:00 24.5 7 Noroeste 14 Noroeste 0 -- -- 42
2020-06-30 03:00:00 25.2 5 Oeste 20 Noroeste 0 -- -- 40
2020-06-30 02:00:00 25.9 10 Noroeste 19 Noroeste 0 -- -- 37
2020-06-30 01:00:00 25.8 10 Noroeste 22 Noroeste 0 -- -- 39
2020-06-30 00:00:00 26.8 13 Noroeste 22 Noroeste 0 -- -- 37
2020-06-29 23:00:00 26.6 15 Noroeste 23 Noroeste 0 -- -- 35
2020-06-29 22:00:00 25.5 14 Noroeste 26 Noroeste 0 -- -- 38
2020-06-29 21:00:00 25.9 21 Noroeste 27 Noroeste 0 -- -- 43
2020-06-29 20:00:00 29.1 14 Noroeste 20 Noroeste 0 -- -- 44
2020-06-29 19:00:00 32.7 7 Noroeste 14 Noroeste 0 -- -- 40
2020-06-29 18:00:00 33 8 Noroeste 15 Noroeste 0 -- -- 30
2020-06-29 17:00:00 32.9 10 Noroeste 17 Norte 0 -- -- 32
2020-06-29 16:00:00 32.5 8 Este 16 Sudeste 0 -- -- 34
2020-06-29 15:00:00 32.1 8 Sudeste 22 Sudeste 0 -- -- 34
2020-06-29 14:00:00 31.1 9 Sur 19 Sur 0 -- -- 40
2020-06-29 13:00:00 30.4 8 Sudeste 19 Sudeste 0 -- -- 46
2020-06-29 12:00:00 29.2 8 Sudeste 17 Sudeste 0 -- -- 46
2020-06-29 11:00:00 28.4 6 Sudeste 11 Sudeste 0 -- -- 48
2020-06-29 10:00:00 27.1 5 Sudeste 9 Sudeste 0 -- -- 50
2020-06-29 09:00:00 25.4 3 Este 6 Este 0 -- -- 56
2020-06-29 08:00:00 21.8 0 Calma 14 Noroeste 0 -- -- 64
2020-06-29 07:00:00 21.6 4 Oeste 18 Noroeste 0 -- -- 59
2020-06-29 06:00:00 22 8 Noroeste 21 Noroeste 0 -- -- 57
2020-06-29 05:00:00 21.5 9 Noroeste 14 Noroeste 0 -- -- 59
2020-06-29 04:00:00 22.2 5 Oeste 17 Noroeste 0 -- -- 57
2020-06-29 03:00:00 22.9 7 Noroeste 20 Noroeste 0 -- -- 55
2020-06-29 02:00:00 23.6 15 Noroeste 22 Noroeste 0 -- -- 53
2020-06-29 01:00:00 24.9 13 Noroeste 24 Norte 0 -- -- 49
2020-06-29 00:00:00 25.7 17 Norte 31 Noroeste 0 -- -- 47
2020-06-28 23:00:00 25.3 15 Noroeste 29 Noroeste 0 -- -- 47
2020-06-28 22:00:00 24.6 14 Noroeste 23 Noroeste 0 -- -- 51
2020-06-28 21:00:00 26.4 6 Noroeste 17 Noroeste 0 -- -- 48
2020-06-28 20:00:00 29.8 7 Noroeste 17 Noroeste 0 -- -- 45
2020-06-28 19:00:00 31.5 6 Noroeste 14 Oeste 0 -- -- 39
2020-06-28 18:00:00 31.9 7 Noroeste 19 Este 0 -- -- 42
2020-06-28 17:00:00 31.7 6 Noroeste 20 Sudeste 0 -- -- 39
2020-06-28 16:00:00 31.9 7 Sur 22 Sur 0 -- -- 38
2020-06-28 15:00:00 30.6 11 Sudeste 22 Sudeste 0 -- -- 43
2020-06-28 14:00:00 29.5 8 Sudeste 21 Sudeste 0 -- -- 46
2020-06-28 13:00:00 28.3 9 Sudeste 21 Sudeste 0 -- -- 45
2020-06-28 12:00:00 26.6 7 Sudeste 13 Sudeste 0 -- -- 51
2020-06-28 11:00:00 25.5 7 Sudeste 17 Sudeste 0 -- -- 54
2020-06-28 10:00:00 24.6 5 Sudeste 9 Este 0 -- -- 57
2020-06-28 09:00:00 22.8 3 Nordeste 5 Nordeste 0 -- -- 59
2020-06-28 08:00:00 19.7 3 Norte 15 Noroeste 0 -- -- 71
2020-06-28 07:00:00 18.8 10 Noroeste 17 Noroeste 0 -- -- 69
2020-06-28 06:00:00 19.3 8 Noroeste 12 Noroeste 0 -- -- 67
2020-06-28 05:00:00 20 0 Calma 14 Noroeste 0 -- -- 64
2020-06-28 04:00:00 21.3 9 Noroeste 17 Noroeste 0 -- -- 59
2020-06-28 03:00:00 21.6 9 Noroeste 13 Noroeste 0 -- -- 59
2020-06-28 02:00:00 22 12 Noroeste 18 Oeste 0 -- -- 57
2020-06-28 01:00:00 22.4 12 Noroeste 21 Noroeste 0 -- -- 56
2020-06-28 00:00:00 23 10 Noroeste 24 Noroeste 0 -- -- 54
2020-06-27 23:00:00 23.2 13 Noroeste 26 Noroeste 0 -- -- 55
2020-06-27 22:00:00 23.8 17 Noroeste 30 Noroeste 0 -- -- 54
2020-06-27 21:00:00 24 13 Noroeste 19 Noroeste 0 -- -- 56
2020-06-27 20:00:00 27.4 10 Noroeste 25 Noroeste 0 -- -- 46
2020-06-27 19:00:00 28.4 9 Noroeste 24 Noroeste 0 -- -- 41
2020-06-27 18:00:00 28.3 14 Noroeste 29 Noroeste 0 -- -- 41
2020-06-27 17:00:00 28.3 14 Noroeste 28 Noroeste 0 -- -- 41
2020-06-27 16:00:00 28.4 15 Noroeste 26 Oeste 0 -- -- 41
2020-06-27 15:00:00 28.2 8 Este 28 Sudeste 0 -- -- 44
2020-06-27 14:00:00 27.7 10 Sudeste 22 Sudeste 0 -- -- 46
2020-06-27 13:00:00 25.6 10 Sudeste 19 Sudeste 0 -- -- 51
2020-06-27 12:00:00 24 8 Sudeste 18 Sudeste 0 -- -- 51
2020-06-27 11:00:00 22.4 9 Sudeste 14 Sudeste 0 -- -- 58
2020-06-27 10:00:00 20.7 5 Sudeste 11 Sudeste 0 -- -- 63
2020-06-27 09:00:00 20 6 Sudeste 13 Sudeste 0 -- -- 62
2020-06-27 08:00:00 16.5 0 Calma 4 Noroeste 0 -- -- 69
2020-06-27 07:00:00 16 3 Noroeste 6 Noroeste 0 -- -- 68
2020-06-27 06:00:00 17.5 0 Calma 19 Noroeste 0 -- -- 62
2020-06-27 05:00:00 19.3 12 Noroeste 24 Noroeste 0 -- -- 58
2020-06-27 04:00:00 20.1 13 Noroeste 26 Noroeste 0 -- -- 54
2020-06-27 03:00:00 20.5 14 Noroeste 23 Noroeste 0 -- -- 51
2020-06-27 02:00:00 20.7 11 Noroeste 24 Noroeste 0 -- -- 49
2020-06-27 01:00:00 21 16 Noroeste 25 Noroeste 0 -- -- 50
2020-06-27 00:00:00 21.2 8 Noroeste 32 Norte 0 -- -- 50
2020-06-26 23:00:00 19.6 10 Noroeste 18 Noroeste 0 -- -- 54
2020-06-26 22:00:00 20.1 13 Noroeste 18 Noroeste 0 -- -- 54
2020-06-26 21:00:00 22.1 6 Noroeste 15 Oeste 0 -- -- 50
2020-06-26 20:00:00 24.9 7 Noroeste 18 Noroeste 0 -- -- 41
2020-06-26 19:00:00 25.6 11 Noroeste 17 Noroeste 0 -- -- 33
2020-06-26 18:00:00 26.4 8 Noroeste 20 Noroeste 0 -- -- 33
2020-06-26 17:00:00 26.6 4 Noroeste 21 Sudoeste 0 -- -- 40
2020-06-26 16:00:00 27 9 Sur 26 Sudoeste 0 -- -- 35
2020-06-26 15:00:00 26.1 13 Sudoeste 24 Sur 0 -- -- 35
2020-06-26 14:00:00 26.1 12 Sur 21 Sur 0 -- -- 32
2020-06-26 13:00:00 25.2 9 Sur 18 Sudeste 0 -- -- 48
2020-06-26 12:00:00 24.2 7 Sudeste 16 Sudeste 0 -- -- 52
2020-06-26 11:00:00 22.5 7 Sudeste 13 Sudeste 0 -- -- 55
2020-06-26 10:00:00 21.6 4 Sudeste 12 Sudeste 0 -- -- 62
2020-06-26 09:00:00 20.1 4 Este 7 Este 0 -- -- 59
2020-06-26 08:00:00 16.8 0 Calma 9 Noroeste 0 -- -- 67
2020-06-26 07:00:00 16.9 4 Oeste 11 Noroeste 0 -- -- 67
2020-06-26 06:00:00 18.1 0 Calma 9 Noroeste 0 -- -- 67
2020-06-26 05:00:00 18.5 6 Noroeste 12 Noroeste 0 -- -- 64
2020-06-26 04:00:00 19.4 4 Oeste 19 Noroeste 0 -- -- 60
2020-06-26 03:00:00 20.1 14 Noroeste 19 Noroeste 0 -- -- 58
2020-06-26 02:00:00 20.8 10 Noroeste 23 Noroeste 0 -- -- 60
2020-06-26 01:00:00 22.2 16 Noroeste 24 Noroeste 0 -- -- 57
2020-06-26 00:00:00 22.9 12 Noroeste 23 Noroeste 0 -- -- 54
2020-06-25 23:00:00 24.8 16 Noroeste 25 Noroeste 0 -- -- 46
2020-06-25 22:00:00 23.6 10 Noroeste 19 Noroeste 0 -- -- 49
2020-06-25 21:00:00 24 7 Noroeste 15 Noroeste 0 -- -- 54
2020-06-25 20:00:00 25.6 9 Noroeste 17 Noroeste 0 -- -- 51
2020-06-25 19:00:00 27.4 9 Noroeste 18 Noroeste 0 -- -- 49
2020-06-25 18:00:00 30.3 7 Oeste 15 Sur 0 -- -- 36
2020-06-25 17:00:00 30.5 4 Sur 22 Sur 0 -- -- 37
2020-06-25 16:00:00 30.8 11 Sur 27 Sur 0 -- -- 32
2020-06-25 15:00:00 30.1 10 Sudeste 24 Sur 0 -- -- 33
2020-06-25 14:00:00 29.6 10 Sudeste 18 Sudeste 0 -- -- 37
2020-06-25 13:00:00 28.5 8 Sudeste 14 Sur 0 -- -- 39
2020-06-25 12:00:00 27.3 7 Sudeste 14 Sudeste 0 -- -- 44
2020-06-25 11:00:00 26.3 6 Sudeste 11 Sudeste 0 -- -- 45
2020-06-25 10:00:00 25.1 6 Sudeste 10 Este 0 -- -- 46
2020-06-25 09:00:00 23 0 Calma 7 Noroeste 0 -- -- 58
2020-06-25 08:00:00 21 6 Noroeste 10 Noroeste 0 -- -- 60
2020-06-25 07:00:00 21.3 6 Noroeste 12 Noroeste 0 -- -- 52
2020-06-25 06:00:00 22.2 2 Norte 14 Noroeste 0 -- -- 47
2020-06-25 05:00:00 22.6 8 Noroeste 14 Noroeste 0 -- -- 47
2020-06-25 04:00:00 22.7 3 Noroeste 10 Noroeste 0 -- -- 48
2020-06-25 03:00:00 23.7 5 Noroeste 12 Noroeste 0 -- -- 48
2020-06-25 02:00:00 24.9 10 Noroeste 18 Noroeste 0 -- -- 46
2020-06-25 01:00:00 25.9 10 Noroeste 24 Noroeste 0 -- -- 43
2020-06-25 00:00:00 25.8 15 Noroeste 26 Noroeste 0 -- -- 42
2020-06-24 23:00:00 25.2 16 Noroeste 25 Noroeste 0 -- -- 46
2020-06-24 22:00:00 24.7 15 Noroeste 23 Noroeste 0 -- -- 49
2020-06-24 21:00:00 25.9 11 Noroeste 17 Noroeste 0 -- -- 49
2020-06-24 20:00:00 29.8 9 Noroeste 26 Este 0 -- -- 42
2020-06-24 19:00:00 33 5 Sudoeste 17 Sudeste 0 -- -- 34
2020-06-24 18:00:00 32.3 6 Sudeste 19 Sudeste 0 -- -- 35
2020-06-24 17:00:00 33.1 8 Sur 21 Sudeste 0 -- -- 33
2020-06-24 16:00:00 32.7 12 Sudeste 22 Sudeste 0 -- -- 34
2020-06-24 15:00:00 32 10 Sur 24 Sur 0 -- -- 35
2020-06-24 14:00:00 31.3 7 Sudeste 23 Sudeste 0 -- -- 38
2020-06-24 13:00:00 29.9 9 Sudeste 20 Sur 0 -- -- 41
2020-06-24 12:00:00 28.5 7 Sur 14 Sur 0 -- -- 46
2020-06-24 11:00:00 28 6 Sudeste 18 Sur 0 -- -- 44
2020-06-24 10:00:00 26.2 0 Calma 15 Este 0 -- -- 46
2020-06-24 09:00:00 26.4 0 Calma 10 Sur 0 -- -- 55
2020-06-24 08:00:00 22.2 6 Noroeste 12 Noroeste 0 -- -- 57
2020-06-24 07:00:00 22.8 4 Noroeste 11 Sur 0 -- -- 48
2020-06-24 06:00:00 26.1 11 Sudoeste 25 Oeste 0 -- -- 36
2020-06-24 05:00:00 25 4 Sur 21 Noroeste 0 -- -- 39
2020-06-24 04:00:00 24.7 16 Noroeste 21 Noroeste 0 -- -- 39
2020-06-24 03:00:00 26.3 11 Noroeste 20 Noroeste 0 -- -- 35
2020-06-24 02:00:00 26.9 11 Noroeste 18 Noroeste 0 -- -- 33
2020-06-24 01:00:00 26.9 10 Noroeste 21 Noroeste 0 -- -- 34
2020-06-24 00:00:00 27 14 Noroeste 22 Noroeste 0 -- -- 34
2020-06-23 23:00:00 26.9 14 Noroeste 21 Noroeste 0 -- -- 35
2020-06-23 22:00:00 27.4 11 Noroeste 18 Noroeste 0 -- -- 35
2020-06-23 21:00:00 27.7 12 Noroeste 19 Noroeste 0 -- -- 36
2020-06-23 20:00:00 29.6 13 Noroeste 18 Noroeste 0 -- -- 37
2020-06-23 19:00:00 32.5 10 Noroeste 14 Noroeste 0 -- -- 38
2020-06-23 18:00:00 33.5 5 Noroeste 9 Noroeste 0 -- -- 32
2020-06-23 17:00:00 33.7 3 Nordeste 10 Sudoeste 0 -- -- 27
2020-06-23 16:00:00 33.5 6 Oeste 13 Sur 0 -- -- 27
2020-06-23 15:00:00 32.7 6 Sudeste 14 Sudeste 0 -- -- 32
2020-06-23 14:00:00 31.7 8 Este 19 Sudeste 0 -- -- 36
2020-06-23 13:00:00 30.9 8 Sur 16 Sudeste 0 -- -- 39
2020-06-23 12:00:00 29.7 6 Sur 11 Sur 0 -- -- 40
2020-06-23 11:00:00 27.6 4 Sur 13 Sudeste 0 -- -- 41
2020-06-23 10:00:00 26.3 4 Sudeste 7 Sudeste 0 -- -- 44
2020-06-23 09:00:00 24.4 3 Sudeste 6 Nordeste 0 -- -- 48
2020-06-23 08:00:00 20.8 2 Nordeste 10 Sudoeste 0 -- -- 56
2020-06-23 07:00:00 21.1 6 Sudoeste 13 Sudoeste 0 -- -- 46
2020-06-23 06:00:00 23.2 2 Sur 19 Noroeste 0 -- -- 39
2020-06-23 05:00:00 23.2 17 Noroeste 23 Noroeste 0 -- -- 38
2020-06-23 04:00:00 23.3 13 Noroeste 20 Noroeste 0 -- -- 37
2020-06-23 03:00:00 23.7 8 Noroeste 14 Noroeste 0 -- -- 37
2020-06-23 02:00:00 25.7 10 Noroeste 18 Noroeste 0 -- -- 31
2020-06-23 01:00:00 26.7 10 Noroeste 20 Noroeste 0 -- -- 31
2020-06-23 00:00:00 26.3 10 Noroeste 18 Noroeste 0 -- -- 34
2020-06-22 23:00:00 25.7 7 Noroeste 18 Noroeste 0 -- -- 36
2020-06-22 22:00:00 26.8 12 Noroeste 18 Noroeste 0 -- -- 34
2020-06-22 21:00:00 26.7 10 Noroeste 18 Noroeste 0 -- -- 38
2020-06-22 20:00:00 29.2 13 Noroeste 18 Noroeste 0 -- -- 36
2020-06-22 19:00:00 31.8 9 Noroeste 14 Noroeste 0 -- -- 40
2020-06-22 18:00:00 32.8 5 Este 13 Este 0 -- -- 28
2020-06-22 17:00:00 33 3 Nordeste 19 Sudeste 0 -- -- 28
2020-06-22 16:00:00 32.9 4 Sur 22 Sur 0 -- -- 29
2020-06-22 15:00:00 32.1 9 Sur 23 Sudeste 0 -- -- 29
2020-06-22 14:00:00 31.3 12 Sudeste 23 Sudeste 0 -- -- 32
2020-06-22 13:00:00 30 10 Sur 18 Sur 0 -- -- 36
2020-06-22 12:00:00 28.6 6 Sudeste 13 Sudeste 0 -- -- 37
2020-06-22 11:00:00 27.2 5 Sur 10 Sudeste 0 -- -- 37
2020-06-22 10:00:00 26 4 Este 11 Sudoeste 0 -- -- 42
2020-06-22 09:00:00 24.4 2 Sudeste 8 Sur 0 -- -- 48
2020-06-22 08:00:00 21.1 5 Sudoeste 18 Noroeste 0 -- -- 46
2020-06-22 07:00:00 19.3 8 Noroeste 14 Noroeste 0 -- -- 47
2020-06-22 06:00:00 21 8 Noroeste 17 Noroeste 0 -- -- 42
2020-06-22 05:00:00 20.9 0 Calma 9 Noroeste 0 -- -- 43
2020-06-22 04:00:00 21.3 4 Sudoeste 19 Noroeste 0 -- -- 41
2020-06-22 03:00:00 22 10 Noroeste 15 Noroeste 0 -- -- 40
2020-06-22 02:00:00 23.5 9 Noroeste 16 Noroeste 0 -- -- 36
2020-06-22 01:00:00 23.3 7 Noroeste 20 Noroeste 0 -- -- 35
2020-06-22 00:00:00 24.5 10 Noroeste 17 Noroeste 0 -- -- 33
2020-06-21 23:00:00 25 11 Norte 35 Norte 0 -- -- 34
2020-06-21 22:00:00 26.4 18 Norte 31 Norte 0 -- -- 33
2020-06-21 21:00:00 25.9 20 Noroeste 30 Noroeste 0 -- -- 38
2020-06-21 20:00:00 27.9 16 Noroeste 23 Norte 0 -- -- 38
2020-06-21 19:00:00 30.8 9 Noroeste 14 Noroeste 0 -- -- 39
2020-06-21 18:00:00 31.2 9 Noroeste 15 Noroeste 0 -- -- 35
2020-06-21 17:00:00 31.6 6 Oeste 19 Sur 0 -- -- 36
2020-06-21 16:00:00 31 7 Sur 15 Sur 0 -- -- 34
2020-06-21 15:00:00 29.6 9 Sur 17 Sudeste 0 -- -- 39
2020-06-21 14:00:00 28.7 8 Sudeste 16 Sur 0 -- -- 42
2020-06-21 13:00:00 27.8 8 Sudeste 17 Sudeste 0 -- -- 39
2020-06-21 12:00:00 26.6 6 Sudeste 13 Sudeste 0 -- -- 41
2020-06-21 11:00:00 24.8 6 Sudeste 11 Sudeste 0 -- -- 50
2020-06-21 10:00:00 24.1 6 Sudeste 10 Sudeste 0 -- -- 49
2020-06-21 09:00:00 21.7 3 Nordeste 7 Noroeste 0 -- -- 50
2020-06-21 08:00:00 19.1 2 Noroeste 10 Noroeste 0 -- -- 62
2020-06-21 07:00:00 18.7 3 Oeste 13 Norte 0 -- -- 51
2020-06-21 06:00:00 20.7 5 Oeste 20 Noroeste 0 -- -- 45
2020-06-21 05:00:00 19.8 9 Noroeste 14 Noroeste 0 -- -- 48
2020-06-21 04:00:00 21.2 10 Noroeste 17 Noroeste 0 -- -- 43
2020-06-21 03:00:00 21.2 10 Noroeste 16 Noroeste 0 -- -- 43
2020-06-21 02:00:00 22.1 13 Noroeste 19 Noroeste 0 -- -- 41
2020-06-21 01:00:00 23.2 12 Noroeste 26 Noroeste 0 -- -- 39
2020-06-21 00:00:00 22.6 17 Noroeste 28 Noroeste 0 -- -- 40
2020-06-20 23:00:00 21.8 13 Noroeste 24 Noroeste 0 -- -- 41
2020-06-20 22:00:00 21.5 9 Noroeste 17 Noroeste 0 -- -- 44
2020-06-20 21:00:00 23.1 6 Noroeste 13 Noroeste 0 -- -- 45
2020-06-20 20:00:00 27.4 6 Noroeste 15 Noroeste 0 -- -- 39
2020-06-20 19:00:00 28.5 7 Noroeste 22 Noroeste 0 -- -- 31
2020-06-20 18:00:00 29.2 6 Noroeste 23 Noroeste 0 -- -- 33
2020-06-20 17:00:00 29.1 9 Noroeste 19 Noroeste 0 -- -- 33
2020-06-20 16:00:00 29.2 3 Norte 17 Oeste 0 -- -- 35
2020-06-20 15:00:00 28.6 9 Sudoeste 23 Sur 0 -- -- 33
2020-06-20 14:00:00 27.3 9 Sudeste 19 Sudeste 0 -- -- 37
2020-06-20 13:00:00 26.5 7 Sudeste 17 Sudeste 0 -- -- 37
2020-06-20 12:00:00 25.3 7 Sur 17 Sudeste 0 -- -- 43
2020-06-20 11:00:00 23.8 7 Sudeste 13 Sudeste 0 -- -- 46
2020-06-20 10:00:00 22.8 6 Sudeste 11 Sudeste 0 -- -- 48
2020-06-20 09:00:00 21.5 0 Calma 5 Sur 0 -- -- 50
2020-06-20 08:00:00 17.7 2 Sur 9 Oeste 0 -- -- 56
2020-06-20 07:00:00 17.3 0 Calma 14 Noroeste 0 -- -- 50
2020-06-20 06:00:00 17.4 2 Oeste 9 Noroeste 0 -- -- 49
2020-06-20 05:00:00 17.9 2 Oeste 10 Oeste 0 -- -- 48
2020-06-20 04:00:00 19.3 6 Noroeste 15 Noroeste 0 -- -- 44
2020-06-20 03:00:00 19.8 9 Noroeste 19 Noroeste 0 -- -- 44
2020-06-20 02:00:00 20.9 13 Noroeste 20 Noroeste 0 -- -- 39
2020-06-20 01:00:00 20.6 9 Noroeste 24 Noroeste 0 -- -- 42
2020-06-20 00:00:00 20.2 18 Noroeste 25 Noroeste 0 -- -- 39
2020-06-19 23:00:00 19.1 12 Noroeste 19 Noroeste 0 -- -- 43
2020-06-19 22:00:00 20.2 7 Noroeste 15 Noroeste 0 -- -- 44
2020-06-19 21:00:00 22.3 8 Oeste 13 Noroeste 0 -- -- 38
2020-06-19 20:00:00 25.8 5 Noroeste 16 Noroeste 0 -- -- 37
2020-06-19 19:00:00 27.5 5 Noroeste 19 Noroeste 0 -- -- 28
2020-06-19 18:00:00 27.5 9 Noroeste 18 Noroeste 0 -- -- 30
2020-06-19 17:00:00 27.4 8 Noroeste 23 Noroeste 0 -- -- 34
2020-06-19 16:00:00 26.8 9 Noroeste 18 Norte 0 -- -- 37
2020-06-19 15:00:00 26.7 8 Sudoeste 24 Sur 0 -- -- 35
2020-06-19 14:00:00 25.8 9 Sur 22 Sudeste 0 -- -- 41
2020-06-19 13:00:00 24.5 7 Sur 15 Este 0 -- -- 44
2020-06-19 12:00:00 23 6 Este 17 Este 0 -- -- 46
2020-06-19 11:00:00 21.8 8 Sur 14 Sudeste 0 -- -- 53
2020-06-19 10:00:00 20.8 5 Sur 14 Sur 0 -- -- 55
2020-06-19 09:00:00 20.5 3 Sudeste 8 Nordeste 0 -- -- 54
2020-06-19 08:00:00 17 2 Sur 13 Noroeste 0 -- -- 61
2020-06-19 07:00:00 16.6 6 Oeste 16 Noroeste 0 -- -- 56
2020-06-19 06:00:00 16.7 10 Noroeste 15 Noroeste 0 -- -- 54
2020-06-19 05:00:00 17 10 Noroeste 16 Noroeste 0 -- -- 52
2020-06-19 04:00:00 17.4 6 Noroeste 17 Noroeste 0 -- -- 51
2020-06-19 03:00:00 18.2 11 Noroeste 19 Noroeste 0 -- -- 49
2020-06-19 02:00:00 19.3 12 Noroeste 20 Noroeste 0 -- -- 47
2020-06-19 01:00:00 19.4 10 Noroeste 19 Noroeste 0 -- -- 49
2020-06-19 00:00:00 19.1 11 Noroeste 21 Noroeste 0 -- -- 48
2020-06-18 23:00:00 19.4 12 Noroeste 24 Noroeste 0 -- -- 49
2020-06-18 22:00:00 19.8 9 Noroeste 15 Oeste 0 -- -- 51
2020-06-18 21:00:00 22 8 Oeste 15 Oeste 0 -- -- 45
2020-06-18 20:00:00 24.8 6 Noroeste 21 Noroeste 0 -- -- 41
2020-06-18 19:00:00 25.9 6 Noroeste 23 Noroeste 0 -- -- 40
2020-06-18 18:00:00 26 9 Noroeste 20 Noroeste 0 -- -- 37
2020-06-18 17:00:00 26.7 7 Noroeste 22 Noroeste 0 -- -- 34
2020-06-18 16:00:00 25.3 6 Noroeste 17 Norte 0 -- -- 38
2020-06-18 15:00:00 24.7 9 Sudeste 22 Sudeste 0 -- -- 42
2020-06-18 14:00:00 24.3 8 Sur 18 Sudeste 0 -- -- 46
2020-06-18 13:00:00 23.4 8 Sudeste 20 Sur 0 -- -- 47
2020-06-18 12:00:00 21.7 5 Sudeste 17 Sudeste 0 -- -- 52
2020-06-18 11:00:00 21.1 9 Sur 19 Sudeste 0 -- -- 54
2020-06-18 10:00:00 19.9 7 Sudeste 12 Sudeste 0 -- -- 56
2020-06-18 09:00:00 18.5 2 Este 6 Nordeste 0 -- -- 55
2020-06-18 08:00:00 15.5 3 Sudoeste 11 Noroeste 0 -- -- 63
2020-06-18 07:00:00 14.3 2 Oeste 13 Noroeste 0 -- -- 63
2020-06-18 06:00:00 15.1 4 Oeste 15 Noroeste 0 -- -- 60
2020-06-18 05:00:00 15.3 4 Oeste 17 Noroeste 0 -- -- 59
2020-06-18 04:00:00 15.6 4 Oeste 13 Noroeste 0 -- -- 58
2020-06-18 03:00:00 16.3 4 Noroeste 16 Noroeste 0 -- -- 57
2020-06-18 02:00:00 17.1 5 Noroeste 19 Noroeste 0 -- -- 53
2020-06-18 01:00:00 18.1 10 Noroeste 19 Noroeste 0 -- -- 49
2020-06-18 00:00:00 18.5 12 Norte 24 Norte 0 -- -- 49
2020-06-17 23:00:00 16.8 12 Noroeste 20 Noroeste 0 -- -- 56
2020-06-17 22:00:00 17.6 15 Noroeste 21 Noroeste 0 -- -- 53
2020-06-17 21:00:00 19.7 9 Noroeste 17 Noroeste 0 -- -- 47
2020-06-17 20:00:00 22.2 10 Noroeste 19 Noroeste 0 -- -- 41
2020-06-17 19:00:00 23.7 9 Noroeste 19 Oeste 0 -- -- 35
2020-06-17 18:00:00 24.1 6 Noroeste 19 Noroeste 0 -- -- 37
2020-06-17 17:00:00 24 9 Noroeste 25 Noroeste 0 -- -- 39
2020-06-17 16:00:00 24 8 Sur 29 Oeste 0 -- -- 42
2020-06-17 15:00:00 23.3 14 Sudeste 31 Sudeste 0 -- -- 42
2020-06-17 14:00:00 22.1 10 Sudeste 22 Sur 0 -- -- 45
2020-06-17 13:00:00 20.7 8 Sudeste 20 Sudeste 0 -- -- 50
2020-06-17 12:00:00 19.5 8 Sur 16 Sudeste 0 -- -- 54
2020-06-17 11:00:00 18.2 9 Sudeste 15 Sudeste 0 -- -- 59
2020-06-17 10:00:00 17 5 Sudeste 13 Sudeste 0 -- -- 63
2020-06-17 09:00:00 15.4 4 Este 6 Este 0 -- -- 61
2020-06-17 08:00:00 11.8 0 Calma 10 Noroeste 0 -- -- 68
2020-06-17 07:00:00 11.9 4 Noroeste 11 Noroeste 0 -- -- 59
2020-06-17 06:00:00 13 5 Oeste 13 Noroeste 0 -- -- 55
2020-06-17 05:00:00 13.4 4 Noroeste 14 Noroeste 0 -- -- 55
2020-06-17 04:00:00 13.6 11 Noroeste 23 Noroeste 0 -- -- 57
2020-06-17 03:00:00 14.8 16 Noroeste 42 Norte 0 -- -- 55
2020-06-17 02:00:00 15.2 30 Noroeste 46 Noroeste 0 -- -- 56
2020-06-17 01:00:00 15.2 22 Noroeste 35 Noroeste 0 -- -- 61
2020-06-17 00:00:00 15.2 17 Noroeste 28 Noroeste 0 -- -- 62
2020-06-16 23:00:00 16.2 9 Norte 24 Noroeste 0 -- -- 59
2020-06-16 22:00:00 16.6 8 Noroeste 26 Noroeste 0 -- -- 58
2020-06-16 21:00:00 19 6 Noroeste 30 Noroeste 0 -- -- 48
2020-06-16 20:00:00 20.9 7 Noroeste 28 Oeste 0 -- -- 52
2020-06-16 19:00:00 20.2 12 Oeste 32 Noroeste 0.2 -- -- 63
2020-06-16 18:00:00 23.1 12 Noroeste 30 Norte 0 -- -- 45
2020-06-16 17:00:00 22.8 13 Norte 36 Noroeste 0 -- -- 44
2020-06-16 16:00:00 23.2 17 Noroeste 38 Norte 0 -- -- 45
2020-06-16 15:00:00 23.4 15 Noroeste 37 Noroeste 0 -- -- 45
2020-06-16 14:00:00 23.2 15 Noroeste 37 Norte 0 -- -- 45
2020-06-16 13:00:00 22.6 12 Nordeste 27 Norte 0 -- -- 43
2020-06-16 12:00:00 22 5 Sudeste 14 Este 0 -- -- 51
2020-06-16 11:00:00 20.1 6 Sudeste 12 Sudeste 0 -- -- 56
2020-06-16 10:00:00 18.1 6 Sur 21 Noroeste 0 -- -- 63
2020-06-16 09:00:00 17.2 15 Noroeste 30 Noroeste 0 -- -- 59
2020-06-16 08:00:00 16.1 16 Noroeste 30 Noroeste 0 -- -- 60
2020-06-16 07:00:00 17 19 Noroeste 36 Noroeste 0 -- -- 56
2020-06-16 06:00:00 17.2 23 Noroeste 37 Noroeste 0 -- -- 55
2020-06-16 05:00:00 16.9 16 Norte 38 Noroeste 0 -- -- 57
2020-06-16 04:00:00 17.5 12 Norte 26 Norte 0 -- -- 56
2020-06-16 03:00:00 17.4 16 Norte 32 Norte 0 -- -- 57
2020-06-16 02:00:00 17.5 13 Noroeste 27 Noroeste 0 -- -- 57
2020-06-16 01:00:00 17.7 17 Noroeste 26 Noroeste 0 -- -- 57
2020-06-16 00:00:00 17.8 13 Noroeste 23 Noroeste 0 -- -- 57
2020-06-15 23:00:00 17.9 8 Norte 29 Noroeste 0 -- -- 56
2020-06-15 22:00:00 19 19 Noroeste 37 Noroeste 0 -- -- 54
2020-06-15 21:00:00 20.3 12 Norte 27 Noroeste 0 -- -- 53
2020-06-15 20:00:00 22.6 5 Noroeste 26 Oeste 0 -- -- 49
2020-06-15 19:00:00 23.4 9 Noroeste 28 Noroeste 0 -- -- 47
2020-06-15 18:00:00 24 11 Noroeste 26 Noroeste 0 -- -- 45
2020-06-15 17:00:00 24.1 12 Noroeste 26 Norte 0 -- -- 46
2020-06-15 16:00:00 24.4 11 Noroeste 29 Oeste 0 -- -- 46
2020-06-15 15:00:00 22.2 5 Sur 23 Sur 0 -- -- 52
2020-06-15 14:00:00 22.8 9 Sur 22 Sur 0 -- -- 50
2020-06-15 13:00:00 21.7 10 Este 20 Nordeste 0 -- -- 55
2020-06-15 12:00:00 20.4 9 Sudeste 18 Sudeste 0 -- -- 60
2020-06-15 11:00:00 18.8 7 Sudeste 14 Sudeste 0 -- -- 63
2020-06-15 10:00:00 17.6 8 Sudeste 14 Sudeste 0 -- -- 65
2020-06-15 09:00:00 16.6 5 Sudeste 9 Sur 0 -- -- 65
2020-06-15 08:00:00 13.7 0 Calma 13 Noroeste 0 -- -- 74
2020-06-15 07:00:00 12.5 3 Oeste 11 Noroeste 0 -- -- 75
2020-06-15 06:00:00 13.4 0 Calma 13 Noroeste 0 -- -- 71
2020-06-15 05:00:00 13.6 2 Noroeste 14 Noroeste 0 -- -- 70
2020-06-15 04:00:00 14.8 7 Noroeste 15 Noroeste 0 -- -- 66
2020-06-15 03:00:00 15.8 9 Noroeste 14 Noroeste 0 -- -- 63
2020-06-15 02:00:00 16 7 Noroeste 21 Noroeste 0 -- -- 61
2020-06-15 01:00:00 16.4 13 Noroeste 23 Noroeste 0 -- -- 60
2020-06-15 00:00:00 17.1 15 Noroeste 23 Noroeste 0 -- -- 58
2020-06-14 23:00:00 17.5 14 Noroeste 24 Noroeste 0 -- -- 56
2020-06-14 22:00:00 16.8 12 Noroeste 19 Noroeste 0 -- -- 60
2020-06-14 21:00:00 18.8 6 Noroeste 14 Noroeste 0 -- -- 55
2020-06-14 20:00:00 21.4 8 Noroeste 22 Noroeste 0 -- -- 46
2020-06-14 19:00:00 22.8 9 Noroeste 24 Noroeste 0 -- -- 43
2020-06-14 18:00:00 22.9 8 Norte 26 Norte 0 -- -- 43
2020-06-14 17:00:00 23 10 Noroeste 25 Noroeste 0 -- -- 43
2020-06-14 16:00:00 22.7 12 Noroeste 26 Noroeste 0 -- -- 44
2020-06-14 15:00:00 22.6 6 Noroeste 20 Noroeste 0 -- -- 43
2020-06-14 14:00:00 21.8 9 Oeste 23 Norte 0 -- -- 43
2020-06-14 13:00:00 20.6 7 Norte 17 Sudeste 0 -- -- 44
2020-06-14 12:00:00 20.6 10 Este 22 Este 0 -- -- 52
2020-06-14 11:00:00 19.2 5 Sudeste 14 Sur 0 -- -- 56
2020-06-14 10:00:00 18.2 8 Sudeste 13 Sudeste 0 -- -- 53
2020-06-14 09:00:00 15.7 2 Este 9 Noroeste 0 -- -- 62
2020-06-14 08:00:00 12 5 Noroeste 9 Noroeste 0 -- -- 73
2020-06-14 07:00:00 11.5 4 Oeste 13 Noroeste 0 -- -- 69
2020-06-14 06:00:00 11.8 9 Noroeste 15 Noroeste 0 -- -- 68
2020-06-14 05:00:00 13.9 8 Noroeste 19 Noroeste 0 -- -- 59
2020-06-14 04:00:00 13.2 10 Noroeste 18 Noroeste 0 -- -- 64
2020-06-14 03:00:00 13.3 9 Norte 17 Noroeste 0 -- -- 66
2020-06-14 02:00:00 13.8 6 Norte 25 Noroeste 0 -- -- 64
2020-06-14 01:00:00 14.4 13 Noroeste 23 Noroeste 0 -- -- 63
2020-06-14 00:00:00 13.6 5 Norte 17 Noroeste 0 -- -- 66
2020-06-13 23:00:00 13.5 9 Noroeste 17 Noroeste 0 -- -- 66
2020-06-13 22:00:00 14.4 6 Noroeste 13 Noroeste 0 -- -- 62
2020-06-13 21:00:00 16.5 5 Noroeste 20 Oeste 0 -- -- 57
2020-06-13 20:00:00 18.1 6 Noroeste 20 Noroeste 0 -- -- 52
2020-06-13 19:00:00 19.2 7 Noroeste 23 Oeste 0 -- -- 47
2020-06-13 18:00:00 20.2 6 Oeste 20 Norte 0 -- -- 43
2020-06-13 17:00:00 20.5 11 Noroeste 25 Noroeste 0 -- -- 43
2020-06-13 16:00:00 20 8 Noroeste 24 Oeste 0 -- -- 48
2020-06-13 15:00:00 20.5 9 Oeste 37 Noroeste 0 -- -- 47
2020-06-13 14:00:00 18.6 3 Este 21 Sudeste 0 -- -- 51
2020-06-13 13:00:00 20.1 9 Sudeste 22 Sur 0 -- -- 49
2020-06-13 12:00:00 18.4 10 Sudeste 19 Sur 0 -- -- 60
2020-06-13 11:00:00 16.2 8 Sudeste 15 Sudeste 0 -- -- 66
2020-06-13 10:00:00 14 10 Sur 31 Noroeste 0 -- -- 74
2020-06-13 09:00:00 13.7 20 Noroeste 39 Noroeste 0 -- -- 65
2020-06-13 08:00:00 11.8 25 Norte 36 Norte 0 -- -- 74
2020-06-13 07:00:00 10.4 18 Norte 30 Noroeste 0 -- -- 79
2020-06-13 06:00:00 10.8 12 Norte 30 Noroeste 0 -- -- 75
2020-06-13 05:00:00 10.4 3 Sudeste 14 Noroeste 0 -- -- 79
2020-06-13 04:00:00 10.4 7 Norte 21 Noroeste 0 -- -- 81
2020-06-13 03:00:00 11.2 8 Norte 31 Noroeste 0 -- -- 76
2020-06-13 02:00:00 11.3 13 Norte 30 Norte 0 -- -- 76
2020-06-13 01:00:00 11.6 13 Norte 34 Norte 0 -- -- 78
2020-06-13 00:00:00 11.9 15 Norte 32 Norte 0 -- -- 75
2020-06-12 23:00:00 12 16 Norte 27 Norte 0 -- -- 74
2020-06-12 22:00:00 12.2 9 Norte 21 Norte 0 -- -- 74
2020-06-12 21:00:00 13.3 5 Noroeste 23 Oeste 0 -- -- 72
2020-06-12 20:00:00 14.2 8 Norte 33 Noroeste 0 -- -- 74
2020-06-12 19:00:00 14.4 16 Noroeste 47 Oeste 0.2 -- -- 72
2020-06-12 18:00:00 18 7 Norte 28 Noroeste 0 -- -- 56
2020-06-12 17:00:00 17.2 4 Norte 27 Norte 0 -- -- 63
2020-06-12 16:00:00 15 5 Norte 24 Sudoeste 0.8 -- -- 84
2020-06-12 15:00:00 14.9 5 Sudeste 20 Norte 0 -- -- 68
2020-06-12 14:00:00 13.7 8 Noroeste 25 Noroeste 0 -- -- 69
2020-06-12 13:00:00 13.3 6 Norte 24 Norte 0 -- -- 74
2020-06-12 12:00:00 12.3 4 Norte 20 Noroeste 0 -- -- 75
2020-06-12 11:00:00 11.4 11 Noroeste 26 Noroeste 0 -- -- 77
2020-06-12 10:00:00 10.9 12 Noroeste 23 Noroeste 0 -- -- 75
2020-06-12 09:00:00 10 10 Noroeste 30 Noroeste 0 -- -- 77
2020-06-12 08:00:00 9.6 8 Noroeste 23 Noroeste 0 -- -- 76
2020-06-12 07:00:00 9.4 3 Sur 23 Noroeste 0 -- -- 73
2020-06-12 06:00:00 9.9 13 Noroeste 35 Noroeste 0 -- -- 69
2020-06-12 05:00:00 9.7 19 Noroeste 37 Noroeste 0 -- -- 68
2020-06-12 04:00:00 10.4 21 Norte 50 Noroeste 0 -- -- 64
2020-06-12 03:00:00 10.9 24 Noroeste 45 Noroeste 0 -- -- 58
2020-06-12 02:00:00 11.1 24 Noroeste 50 Norte 0 -- -- 59
2020-06-12 01:00:00 11.3 20 Norte 41 Norte 0 -- -- 60
2020-06-12 00:00:00 12.3 19 Noroeste 36 Noroeste 0 -- -- 59
2020-06-11 23:00:00 13.2 8 Noroeste 27 Norte 0 -- -- 60
2020-06-11 22:00:00 14.7 16 Noroeste 41 Noroeste 0 -- -- 57
2020-06-11 21:00:00 15.8 14 Noroeste 35 Oeste 0 -- -- 56
2020-06-11 20:00:00 17.2 18 Noroeste 54 Noroeste 0 -- -- 50
2020-06-11 19:00:00 18.8 13 Noroeste 41 Noroeste 0 -- -- 56
2020-06-11 18:00:00 19.1 16 Oeste 40 Oeste 0 -- -- 59
2020-06-11 17:00:00 20.3 15 Noroeste 33 Noroeste 0 -- -- 54
2020-06-11 16:00:00 21.9 8 Noroeste 28 Oeste 0 -- -- 48
2020-06-11 15:00:00 21.3 14 Noroeste 37 Noroeste 0 -- -- 51
2020-06-11 14:00:00 20.1 21 Norte 45 Norte 0 -- -- 53
2020-06-11 13:00:00 20.1 18 Noroeste 40 Norte 0 -- -- 52
2020-06-11 12:00:00 19.6 18 Noroeste 34 Noroeste 0 -- -- 53
2020-06-11 11:00:00 18.2 7 Sudeste 15 Sudeste 0 -- -- 63
2020-06-11 10:00:00 16.1 8 Sudeste 15 Sudeste 0 -- -- 69
2020-06-11 09:00:00 14.2 6 Sudeste 13 Sudeste 0 -- -- 75
2020-06-11 08:00:00 11.5 3 Este 6 Sudeste 0 -- -- 86
2020-06-11 07:00:00 10.6 4 Sudoeste 9 Sudoeste 0 -- -- 84
2020-06-11 06:00:00 12.7 2 Sur 6 Sudeste 0 -- -- 74
2020-06-11 05:00:00 14.4 4 Sur 27 Noroeste 0 -- -- 68
2020-06-11 04:00:00 16.9 18 Noroeste 27 Noroeste 0 -- -- 54
2020-06-11 03:00:00 17.1 11 Noroeste 21 Norte 0 -- -- 52
2020-06-11 02:00:00 17.5 13 Noroeste 33 Norte 0 -- -- 53
2020-06-11 01:00:00 17.6 19 Norte 32 Norte 0 -- -- 57
2020-06-11 00:00:00 17.9 13 Noroeste 27 Noroeste 0 -- -- 55
2020-06-10 23:00:00 19.1 10 Noroeste 21 Noroeste 0 -- -- 27
2020-06-10 22:00:00 19.6 11 Noroeste 19 Noroeste 0 -- -- 32
2020-06-10 21:00:00 20.6 8 Noroeste 21 Noroeste 0 -- -- 38
2020-06-10 20:00:00 23 8 Noroeste 18 Norte 0 -- -- 35
2020-06-10 19:00:00 24.6 5 Norte 22 Noroeste 0 -- -- 37
2020-06-10 18:00:00 25.2 7 Noroeste 22 Oeste 0 -- -- 31
2020-06-10 17:00:00 25.3 6 Sudeste 18 Oeste 0 -- -- 35
2020-06-10 16:00:00 24.7 6 Sudoeste 26 Sur 0 -- -- 31
2020-06-10 15:00:00 23.8 8 Sudeste 19 Sudeste 0 -- -- 35
2020-06-10 14:00:00 23.1 9 Sudeste 23 Sudeste 0 -- -- 38
2020-06-10 13:00:00 22.2 8 Sur 16 Sur 0 -- -- 40
2020-06-10 12:00:00 20.6 6 Sudeste 18 Sudeste 0 -- -- 44
2020-06-10 11:00:00 19.5 4 Este 11 Sudeste 0 -- -- 44
2020-06-10 10:00:00 18 5 Sudeste 12 Sudeste 0 -- -- 46
2020-06-10 09:00:00 16.9 3 Sudeste 10 Sur 0 -- -- 46
2020-06-10 08:00:00 13.1 2 Norte 5 Noroeste 0 -- -- 62
2020-06-10 07:00:00 11.6 3 Noroeste 12 Noroeste 0 -- -- 59
2020-06-10 06:00:00 12.3 6 Noroeste 13 Noroeste 0 -- -- 57
2020-06-10 05:00:00 13.3 0 Calma 9 Sudoeste 0 -- -- 54
2020-06-10 04:00:00 14.8 3 Sudoeste 12 Sudoeste 0 -- -- 49
2020-06-10 03:00:00 15.1 4 Oeste 19 Noroeste 0 -- -- 47
2020-06-10 02:00:00 16.1 5 Sur 20 Sur 0 -- -- 47
2020-06-10 01:00:00 17.4 10 Noroeste 24 Noroeste 0 -- -- 42
2020-06-10 00:00:00 18.1 18 Noroeste 26 Norte 0 -- -- 40
2020-06-09 23:00:00 17.3 19 Noroeste 26 Noroeste 0 -- -- 45
2020-06-09 22:00:00 17.5 15 Noroeste 23 Noroeste 0 -- -- 48
2020-06-09 21:00:00 18.4 14 Noroeste 21 Noroeste 0 -- -- 48
2020-06-09 20:00:00 22.1 5 Norte 18 Noroeste 0 -- -- 43
2020-06-09 19:00:00 23.3 7 Noroeste 21 Noroeste 0 -- -- 39
2020-06-09 18:00:00 22.9 8 Noroeste 19 Norte 0 -- -- 38
2020-06-09 17:00:00 23.1 7 Noroeste 26 Noroeste 0 -- -- 37
2020-06-09 16:00:00 23.2 10 Norte 24 Noroeste 0 -- -- 39
2020-06-09 15:00:00 22.8 9 Noroeste 23 Noroeste 0 -- -- 37
2020-06-09 14:00:00 21.9 8 Sudeste 21 Este 0 -- -- 45
2020-06-09 13:00:00 20.5 8 Sur 18 Sudeste 0 -- -- 47
2020-06-09 12:00:00 19 6 Sudeste 18 Sudeste 0 -- -- 51
2020-06-09 11:00:00 17.9 7 Sudeste 15 Sudeste 0 -- -- 52
2020-06-09 10:00:00 16.9 7 Sudeste 13 Sudeste 0 -- -- 56
2020-06-09 09:00:00 15.7 6 Sudeste 12 Sudeste 0 -- -- 54
2020-06-09 08:00:00 12 3 Norte 9 Noroeste 0 -- -- 69
2020-06-09 07:00:00 10.4 4 Noroeste 10 Noroeste 0 -- -- 68
2020-06-09 06:00:00 12 0 Calma 9 Sudeste 0 -- -- 58
2020-06-09 05:00:00 11.5 4 Noroeste 11 Noroeste 0 -- -- 56
2020-06-09 04:00:00 12.2 8 Noroeste 13 Noroeste 0 -- -- 53
2020-06-09 03:00:00 12.8 11 Noroeste 15 Noroeste 0 -- -- 51
2020-06-09 02:00:00 14 7 Noroeste 18 Oeste 0 -- -- 45
2020-06-09 01:00:00 16.4 12 Norte 24 Norte 0 -- -- 37
2020-06-09 00:00:00 17.2 14 Norte 33 Norte 0 -- -- 34
2020-06-08 23:00:00 17.4 18 Norte 39 Norte 0 -- -- 37
2020-06-08 22:00:00 17.7 22 Norte 41 Norte 0 -- -- 38
2020-06-08 21:00:00 18.1 17 Norte 32 Norte 0 -- -- 37
2020-06-08 20:00:00 19.5 15 Norte 33 Norte 0 -- -- 36
2020-06-08 19:00:00 20.7 12 Norte 27 Norte 0 -- -- 36
2020-06-08 18:00:00 21.2 13 Norte 30 Noroeste 0 -- -- 39
2020-06-08 17:00:00 21.4 16 Norte 35 Noroeste 0 -- -- 43
2020-06-08 16:00:00 20.5 6 Este 14 Sudeste 0 -- -- 52
2020-06-08 15:00:00 19.3 6 Sudeste 39 Sudeste 0 -- -- 55
2020-06-08 14:00:00 20 8 Sur 17 Sudeste 0 -- -- 52
2020-06-08 13:00:00 19.7 11 Sur 21 Sudeste 0 -- -- 55
2020-06-08 12:00:00 17.9 9 Sudeste 18 Sur 0 -- -- 58
2020-06-08 11:00:00 17.3 7 Sudeste 16 Sudeste 0 -- -- 58
2020-06-08 10:00:00 16.7 10 Sudeste 16 Sudeste 0 -- -- 59
2020-06-08 09:00:00 15.1 9 Sudeste 15 Sudeste 0 -- -- 64
2020-06-08 08:00:00 13.2 2 Sudoeste 5 Sudoeste 0 -- -- 78
2020-06-08 07:00:00 11.8 3 Nordeste 9 Noroeste 0 -- -- 81
2020-06-08 06:00:00 11.2 4 Sudoeste 8 Sudoeste 0 -- -- 81
2020-06-08 05:00:00 10 3 Noroeste 12 Noroeste 0 -- -- 85
2020-06-08 04:00:00 10.3 2 Sur 6 Noroeste 0 -- -- 83
2020-06-08 03:00:00 12.4 2 Sur 22 Noroeste 0 -- -- 74
2020-06-08 02:00:00 15.3 14 Noroeste 31 Norte 0 -- -- 60
2020-06-08 01:00:00 15.8 19 Noroeste 35 Noroeste 0 -- -- 60
2020-06-08 00:00:00 15.8 21 Noroeste 39 Noroeste 0 -- -- 60